SANU/UAQ METAR and TAF weather

Enter ICAO airport designator
Station Type Date Time Source
SANU METAR 2020/01/20 23:15 UTC NOAA

SANU 202315Z 16025G34KT 5000 SA FEW040TCU 39/15 Q1003


Station Type Date Time Source
SANU Decoded METAR 2020/01/20 23:15 UTC NOAA

San Juan Aerodrome, Argentina (SANU) 31-34S 068-52W 598M
Jan 20, 2020 - 06:15 PM EST / 2020.01.20 2315 UTC
Wind: from the SSE (160 degrees) at 29 MPH (25 KT) gusting to 39 MPH (34 KT):0
Visibility: 3 mile(s):0
Sky conditions: mostly clear
Weather: sand; Towering cumulus clouds observed
Temperature: 102 F (39 C)
Heat index: 102.2 F (39.0 C):1
Dew Point: 59 F (15 C)
Relative Humidity: 24%
Pressure (altimeter): 29.62 in. Hg (1003 hPa)
ob: SANU 202315Z 16025G34KT 5000 SA FEW040TCU 39/15 Q1003
cycle: 23

Station Type Date Time Source
SANU TAF 2019/08/18 18:03 UTC NOAA

TAF TAF SANU 181700Z 1818/1912 18010KT 9999 FEW030 SCT070 TX17/1819Z TN01/1911Z

Example: see airport list